sensor_id;sensor_type;location;lat;lon;timestamp;pressure;altitude;pressure_sealevel;temperature
69186;BMP280;56298;49.246;9.410;2023-08-20T00:02:23;99748.75;;;24.25
69186;BMP280;56298;49.246;9.410;2023-08-20T00:04:48;99746.97;;;24.31
69186;BMP280;56298;49.246;9.410;2023-08-20T00:07:19;99748.53;;;24.32
69186;BMP280;56298;49.246;9.410;2023-08-20T00:09:45;99749.22;;;24.36
69186;BMP280;56298;49.246;9.410;2023-08-20T00:12:10;99737.44;;;24.41
69186;BMP280;56298;49.246;9.410;2023-08-20T00:15:00;99737.44;;;24.41
69186;BMP280;56298;49.246;9.410;2023-08-20T00:17:33;99740.34;;;24.25
69186;BMP280;56298;49.246;9.410;2023-08-20T00:19:59;99752.75;;;24.11
69186;BMP280;56298;49.246;9.410;2023-08-20T00:22:25;99751.75;;;24.18
69186;BMP280;56298;49.246;9.410;2023-08-20T00:24:52;99754.25;;;24.16
69186;BMP280;56298;49.246;9.410;2023-08-20T00:27:17;99750.06;;;24.07
69186;BMP280;56298;49.246;9.410;2023-08-20T00:29:43;99750.31;;;24.13
69186;BMP280;56298;49.246;9.410;2023-08-20T00:32:08;99756.25;;;24.15
69186;BMP280;56298;49.246;9.410;2023-08-20T00:34:34;99752.44;;;24.09
69186;BMP280;56298;49.246;9.410;2023-08-20T00:37:00;99755.63;;;24.24
69186;BMP280;56298;49.246;9.410;2023-08-20T00:39:25;99760.28;;;24.14
69186;BMP280;56298;49.246;9.410;2023-08-20T00:41:50;99768.88;;;24.07
69186;BMP280;56298;49.246;9.410;2023-08-20T00:44:16;99776.75;;;24.12
69186;BMP280;56298;49.246;9.410;2023-08-20T00:46:41;99770.13;;;24.06
69186;BMP280;56298;49.246;9.410;2023-08-20T00:49:06;99769.25;;;24.09
69186;BMP280;56298;49.246;9.410;2023-08-20T00:51:33;99771.47;;;24.01
69186;BMP280;56298;49.246;9.410;2023-08-20T00:53:59;99768.69;;;24.01
69186;BMP280;56298;49.246;9.410;2023-08-20T00:56:25;99766.31;;;24.00
69186;BMP280;56298;49.246;9.410;2023-08-20T00:58:53;99769.56;;;23.98
69186;BMP280;56298;49.246;9.410;2023-08-20T01:01:18;99761.25;;;23.94
69186;BMP280;56298;49.246;9.410;2023-08-20T01:03:43;99761.69;;;23.93
69186;BMP280;56298;49.246;9.410;2023-08-20T01:06:17;99761.44;;;23.87
69186;BMP280;56298;49.246;9.410;2023-08-20T01:08:47;99766.47;;;23.79
69186;BMP280;56298;49.246;9.410;2023-08-20T01:11:24;99766.78;;;23.81
69186;BMP280;56298;49.246;9.410;2023-08-20T01:13:54;99767.94;;;23.84
69186;BMP280;56298;49.246;9.410;2023-08-20T01:16:19;99759.06;;;23.86
69186;BMP280;56298;49.246;9.410;2023-08-20T01:18:47;99763.56;;;23.83
69186;BMP280;56298;49.246;9.410;2023-08-20T01:21:37;99759.97;;;23.83
69186;BMP280;56298;49.246;9.410;2023-08-20T01:29:21;99766.38;;;23.83
69186;BMP280;56298;49.246;9.410;2023-08-20T01:31:46;99761.63;;;23.80
69186;BMP280;56298;49.246;9.410;2023-08-20T01:34:12;99767.81;;;23.75
69186;BMP280;56298;49.246;9.410;2023-08-20T01:36:38;99775.63;;;23.80
69186;BMP280;56298;49.246;9.410;2023-08-20T01:39:03;99765.31;;;23.77
69186;BMP280;56298;49.246;9.410;2023-08-20T01:41:30;99770.38;;;23.82
69186;BMP280;56298;49.246;9.410;2023-08-20T01:43:55;99771.28;;;23.79
69186;BMP280;56298;49.246;9.410;2023-08-20T01:46:20;99769.59;;;23.81
69186;BMP280;56298;49.246;9.410;2023-08-20T01:48:46;99774.28;;;23.72
69186;BMP280;56298;49.246;9.410;2023-08-20T01:51:11;99776.03;;;23.65
69186;BMP280;56298;49.246;9.410;2023-08-20T01:53:36;99779.00;;;23.58
69186;BMP280;56298;49.246;9.410;2023-08-20T01:56:02;99782.25;;;23.57
69186;BMP280;56298;49.246;9.410;2023-08-20T01:58:27;99781.13;;;23.54
69186;BMP280;56298;49.246;9.410;2023-08-20T02:00:52;99778.41;;;23.50
69186;BMP280;56298;49.246;9.410;2023-08-20T02:03:18;99787.09;;;23.40
69186;BMP280;56298;49.246;9.410;2023-08-20T02:05:43;99787.97;;;23.37
69186;BMP280;56298;49.246;9.410;2023-08-20T02:08:08;99778.78;;;23.36
69186;BMP280;56298;49.246;9.410;2023-08-20T02:10:34;99783.06;;;23.24
69186;BMP280;56298;49.246;9.410;2023-08-20T02:12:59;99788.25;;;23.26
69186;BMP280;56298;49.246;9.410;2023-08-20T02:15:24;99784.22;;;23.10
69186;BMP280;56298;49.246;9.410;2023-08-20T02:17:49;99781.41;;;23.10
69186;BMP280;56298;49.246;9.410;2023-08-20T02:20:15;99774.59;;;22.95
69186;BMP280;56298;49.246;9.410;2023-08-20T02:22:40;99779.19;;;22.85
69186;BMP280;56298;49.246;9.410;2023-08-20T02:25:05;99783.91;;;22.88
69186;BMP280;56298;49.246;9.410;2023-08-20T02:27:31;99780.19;;;22.95
69186;BMP280;56298;49.246;9.410;2023-08-20T02:29:56;99773.25;;;22.83
69186;BMP280;56298;49.246;9.410;2023-08-20T02:32:22;99774.91;;;22.80
69186;BMP280;56298;49.246;9.410;2023-08-20T02:34:51;99772.25;;;22.73
69186;BMP280;56298;49.246;9.410;2023-08-20T02:37:16;99768.31;;;22.70
69186;BMP280;56298;49.246;9.410;2023-08-20T02:39:41;99770.06;;;22.64
69186;BMP280;56298;49.246;9.410;2023-08-20T02:42:07;99769.63;;;22.66
69186;BMP280;56298;49.246;9.410;2023-08-20T02:44:32;99761.75;;;22.60
69186;BMP280;56298;49.246;9.410;2023-08-20T02:46:57;99766.13;;;22.62
69186;BMP280;56298;49.246;9.410;2023-08-20T02:49:22;99757.84;;;22.58
69186;BMP280;56298;49.246;9.410;2023-08-20T02:51:47;99757.44;;;22.56
69186;BMP280;56298;49.246;9.410;2023-08-20T02:54:13;99761.91;;;22.53
69186;BMP280;56298;49.246;9.410;2023-08-20T02:56:38;99757.97;;;22.51
69186;BMP280;56298;49.246;9.410;2023-08-20T02:59:03;99751.31;;;22.44
69186;BMP280;56298;49.246;9.410;2023-08-20T03:01:29;99750.47;;;22.48
69186;BMP280;56298;49.246;9.410;2023-08-20T03:03:54;99747.13;;;22.53
69186;BMP280;56298;49.246;9.410;2023-08-20T03:06:19;99747.81;;;22.40
69186;BMP280;56298;49.246;9.410;2023-08-20T03:08:45;99743.97;;;22.34
69186;BMP280;56298;49.246;9.410;2023-08-20T03:11:10;99748.19;;;22.22
69186;BMP280;56298;49.246;9.410;2023-08-20T03:13:36;99742.94;;;22.24
69186;BMP280;56298;49.246;9.410;2023-08-20T03:16:01;99751.47;;;22.17
69186;BMP280;56298;49.246;9.410;2023-08-20T03:18:27;99752.69;;;22.16
69186;BMP280;56298;49.246;9.410;2023-08-20T03:20:55;99756.91;;;22.24
69186;BMP280;56298;49.246;9.410;2023-08-20T03:23:21;99759.06;;;22.17
69186;BMP280;56298;49.246;9.410;2023-08-20T03:25:46;99758.59;;;22.22
69186;BMP280;56298;49.246;9.410;2023-08-20T03:28:11;99762.72;;;22.13
69186;BMP280;56298;49.246;9.410;2023-08-20T03:30:36;99774.31;;;22.12
69186;BMP280;56298;49.246;9.410;2023-08-20T03:33:02;99775.13;;;22.12
69186;BMP280;56298;49.246;9.410;2023-08-20T03:35:27;99776.13;;;22.02
69186;BMP280;56298;49.246;9.410;2023-08-20T03:37:52;99773.66;;;22.04
69186;BMP280;56298;49.246;9.410;2023-08-20T03:40:18;99772.88;;;22.04
69186;BMP280;56298;49.246;9.410;2023-08-20T03:42:43;99779.19;;;22.08
69186;BMP280;56298;49.246;9.410;2023-08-20T03:45:09;99773.66;;;22.04
69186;BMP280;56298;49.246;9.410;2023-08-20T03:47:34;99775.66;;;22.04
69186;BMP280;56298;49.246;9.410;2023-08-20T03:49:59;99771.44;;;21.95
69186;BMP280;56298;49.246;9.410;2023-08-20T03:52:24;99770.69;;;21.95
69186;BMP280;56298;49.246;9.410;2023-08-20T03:54:50;99776.75;;;21.90
69186;BMP280;56298;49.246;9.410;2023-08-20T03:57:15;99780.88;;;21.81
69186;BMP280;56298;49.246;9.410;2023-08-20T03:59:41;99785.75;;;21.77
69186;BMP280;56298;49.246;9.410;2023-08-20T04:02:06;99787.38;;;21.75
69186;BMP280;56298;49.246;9.410;2023-08-20T04:04:32;99791.03;;;21.72
69186;BMP280;56298;49.246;9.410;2023-08-20T04:06:57;99801.84;;;21.69
69186;BMP280;56298;49.246;9.410;2023-08-20T04:09:22;99803.38;;;21.70
69186;BMP280;56298;49.246;9.410;2023-08-20T04:11:47;99805.91;;;21.65
69186;BMP280;56298;49.246;9.410;2023-08-20T04:14:13;99791.97;;;21.65
69186;BMP280;56298;49.246;9.410;2023-08-20T04:16:38;99802.91;;;21.52
69186;BMP280;56298;49.246;9.410;2023-08-20T04:19:03;99793.63;;;21.59
69186;BMP280;56298;49.246;9.410;2023-08-20T04:21:28;99792.91;;;21.54
69186;BMP280;56298;49.246;9.410;2023-08-20T04:23:54;99780.00;;;21.64
69186;BMP280;56298;49.246;9.410;2023-08-20T04:26:19;99784.31;;;21.69
69186;BMP280;56298;49.246;9.410;2023-08-20T04:28:44;99791.56;;;21.63
69186;BMP280;56298;49.246;9.410;2023-08-20T04:31:09;99794.09;;;21.57
69186;BMP280;56298;49.246;9.410;2023-08-20T04:33:35;99784.75;;;21.64
69186;BMP280;56298;49.246;9.410;2023-08-20T04:36:00;99783.25;;;21.59
69186;BMP280;56298;49.246;9.410;2023-08-20T04:38:26;99779.25;;;21.60
69186;BMP280;56298;49.246;9.410;2023-08-20T04:40:51;99783.19;;;21.63
69186;BMP280;56298;49.246;9.410;2023-08-20T04:43:16;99787.63;;;21.60
69186;BMP280;56298;49.246;9.410;2023-08-20T04:45:41;99793.13;;;21.64
69186;BMP280;56298;49.246;9.410;2023-08-20T04:48:07;99796.38;;;21.62
69186;BMP280;56298;49.246;9.410;2023-08-20T04:50:32;99792.19;;;21.74
69186;BMP280;56298;49.246;9.410;2023-08-20T04:52:58;99794.00;;;21.84
69186;BMP280;56298;49.246;9.410;2023-08-20T04:55:25;99796.44;;;21.82
69186;BMP280;56298;49.246;9.410;2023-08-20T04:57:50;99792.78;;;21.85
69186;BMP280;56298;49.246;9.410;2023-08-20T05:00:16;99792.78;;;21.85
69186;BMP280;56298;49.246;9.410;2023-08-20T05:02:41;99791.84;;;21.92
69186;BMP280;56298;49.246;9.410;2023-08-20T05:05:06;99799.75;;;21.97
69186;BMP280;56298;49.246;9.410;2023-08-20T05:07:32;99800.34;;;22.09
69186;BMP280;56298;49.246;9.410;2023-08-20T05:09:57;99796.97;;;22.18
69186;BMP280;56298;49.246;9.410;2023-08-20T05:12:22;99799.56;;;22.28
69186;BMP280;56298;49.246;9.410;2023-08-20T05:14:47;99800.19;;;22.36
69186;BMP280;56298;49.246;9.410;2023-08-20T05:17:13;99810.00;;;22.44
69186;BMP280;56298;49.246;9.410;2023-08-20T05:19:38;99805.69;;;22.40
69186;BMP280;56298;49.246;9.410;2023-08-20T05:22:03;99807.44;;;22.34
69186;BMP280;56298;49.246;9.410;2023-08-20T05:24:29;99824.00;;;22.44
69186;BMP280;56298;49.246;9.410;2023-08-20T05:27:10;99834.66;;;22.50
69186;BMP280;56298;49.246;9.410;2023-08-20T05:29:37;99831.06;;;22.69
69186;BMP280;56298;49.246;9.410;2023-08-20T05:32:02;99836.16;;;22.74
69186;BMP280;56298;49.246;9.410;2023-08-20T05:34:28;99822.41;;;23.00
69186;BMP280;56298;49.246;9.410;2023-08-20T05:36:53;99818.25;;;23.25
69186;BMP280;56298;49.246;9.410;2023-08-20T05:39:18;99823.50;;;23.56
69186;BMP280;56298;49.246;9.410;2023-08-20T05:41:44;99805.94;;;23.85
69186;BMP280;56298;49.246;9.410;2023-08-20T05:44:10;99792.34;;;23.84
69186;BMP280;56298;49.246;9.410;2023-08-20T05:46:35;99788.19;;;24.18
69186;BMP280;56298;49.246;9.410;2023-08-20T05:49:00;99799.38;;;24.60
69186;BMP280;56298;49.246;9.410;2023-08-20T05:51:26;99803.00;;;24.99
69186;BMP280;56298;49.246;9.410;2023-08-20T05:53:51;99809.72;;;25.50
69186;BMP280;56298;49.246;9.410;2023-08-20T05:56:16;99828.06;;;25.55
69186;BMP280;56298;49.246;9.410;2023-08-20T05:58:41;99832.44;;;25.78
69186;BMP280;56298;49.246;9.410;2023-08-20T06:01:06;99847.66;;;26.03
69186;BMP280;56298;49.246;9.410;2023-08-20T06:03:32;99847.63;;;26.47
69186;BMP280;56298;49.246;9.410;2023-08-20T06:05:57;99854.13;;;26.66
69186;BMP280;56298;49.246;9.410;2023-08-20T06:08:23;99861.03;;;26.43
69186;BMP280;56298;49.246;9.410;2023-08-20T06:10:48;99860.41;;;26.17
69186;BMP280;56298;49.246;9.410;2023-08-20T06:13:13;99848.50;;;26.13
69186;BMP280;56298;49.246;9.410;2023-08-20T06:15:39;99845.59;;;26.48
69186;BMP280;56298;49.246;9.410;2023-08-20T06:18:04;99844.75;;;27.10
69186;BMP280;56298;49.246;9.410;2023-08-20T06:20:29;99856.22;;;27.62
69186;BMP280;56298;49.246;9.410;2023-08-20T06:22:55;99856.94;;;28.37
69186;BMP280;56298;49.246;9.410;2023-08-20T06:25:20;99853.84;;;28.69
69186;BMP280;56298;49.246;9.410;2023-08-20T06:27:45;99856.34;;;29.00
69186;BMP280;56298;49.246;9.410;2023-08-20T06:30:11;99862.34;;;28.60
69186;BMP280;56298;49.246;9.410;2023-08-20T06:32:36;99864.81;;;28.24
69186;BMP280;56298;49.246;9.410;2023-08-20T06:35:01;99855.47;;;27.90
69186;BMP280;56298;49.246;9.410;2023-08-20T06:37:26;99855.91;;;27.88
69186;BMP280;56298;49.246;9.410;2023-08-20T06:39:52;99866.41;;;27.69
69186;BMP280;56298;49.246;9.410;2023-08-20T06:42:17;99871.25;;;27.41
69186;BMP280;56298;49.246;9.410;2023-08-20T06:44:42;99860.13;;;27.46
69186;BMP280;56298;49.246;9.410;2023-08-20T06:47:08;99854.66;;;27.43
69186;BMP280;56298;49.246;9.410;2023-08-20T06:49:33;99858.88;;;27.38
69186;BMP280;56298;49.246;9.410;2023-08-20T06:51:58;99864.34;;;27.42
69186;BMP280;56298;49.246;9.410;2023-08-20T06:54:23;99862.66;;;27.63
69186;BMP280;56298;49.246;9.410;2023-08-20T06:56:49;99864.13;;;28.38
69186;BMP280;56298;49.246;9.410;2023-08-20T06:59:14;99856.13;;;29.28
69186;BMP280;56298;49.246;9.410;2023-08-20T07:01:39;99860.91;;;30.01
69186;BMP280;56298;49.246;9.410;2023-08-20T07:04:05;99869.28;;;30.60
69186;BMP280;56298;49.246;9.410;2023-08-20T07:06:30;99869.66;;;31.04
69186;BMP280;56298;49.246;9.410;2023-08-20T07:08:55;99867.97;;;31.85
69186;BMP280;56298;49.246;9.410;2023-08-20T07:11:21;99872.66;;;32.20
69186;BMP280;56298;49.246;9.410;2023-08-20T07:13:46;99868.94;;;32.90
69186;BMP280;56298;49.246;9.410;2023-08-20T07:16:12;99867.06;;;33.36
69186;BMP280;56298;49.246;9.410;2023-08-20T07:18:37;99863.22;;;33.61
69186;BMP280;56298;49.246;9.410;2023-08-20T07:21:02;99868.41;;;33.80
69186;BMP280;56298;49.246;9.410;2023-08-20T07:23:28;99873.09;;;34.06
69186;BMP280;56298;49.246;9.410;2023-08-20T07:26:07;99867.53;;;33.17
69186;BMP280;56298;49.246;9.410;2023-08-20T07:28:33;99872.31;;;34.17
69186;BMP280;56298;49.246;9.410;2023-08-20T07:31:17;99873.16;;;34.87
69186;BMP280;56298;49.246;9.410;2023-08-20T07:33:46;99868.53;;;34.67
69186;BMP280;56298;49.246;9.410;2023-08-20T07:36:12;99874.09;;;34.31
69186;BMP280;56298;49.246;9.410;2023-08-20T07:38:42;99881.84;;;33.51
69186;BMP280;56298;49.246;9.410;2023-08-20T07:41:11;99886.00;;;32.90
69186;BMP280;56298;49.246;9.410;2023-08-20T07:43:39;99897.19;;;32.24
69186;BMP280;56298;49.246;9.410;2023-08-20T07:46:05;99896.88;;;32.48
69186;BMP280;56298;49.246;9.410;2023-08-20T07:48:31;99895.81;;;32.89
69186;BMP280;56298;49.246;9.410;2023-08-20T07:50:56;99896.78;;;33.29
69186;BMP280;56298;49.246;9.410;2023-08-20T07:53:22;99894.81;;;34.09
69186;BMP280;56298;49.246;9.410;2023-08-20T07:55:48;99898.41;;;33.81
69186;BMP280;56298;49.246;9.410;2023-08-20T07:58:14;99898.41;;;33.58
69186;BMP280;56298;49.246;9.410;2023-08-20T08:00:39;99901.16;;;33.30
69186;BMP280;56298;49.246;9.410;2023-08-20T08:03:05;99893.34;;;33.08
69186;BMP280;56298;49.246;9.410;2023-08-20T08:05:33;99904.75;;;33.25
69186;BMP280;56298;49.246;9.410;2023-08-20T08:07:58;99900.41;;;33.35
69186;BMP280;56298;49.246;9.410;2023-08-20T08:10:23;99904.75;;;33.13
69186;BMP280;56298;49.246;9.410;2023-08-20T08:12:49;99894.28;;;32.88
69186;BMP280;56298;49.246;9.410;2023-08-20T08:15:14;99902.97;;;32.67
69186;BMP280;56298;49.246;9.410;2023-08-20T08:17:42;99897.94;;;32.50
69186;BMP280;56298;49.246;9.410;2023-08-20T08:20:07;99905.84;;;32.41
69186;BMP280;56298;49.246;9.410;2023-08-20T08:22:33;99913.16;;;32.21
69186;BMP280;56298;49.246;9.410;2023-08-20T08:24:58;99916.88;;;32.27
69186;BMP280;56298;49.246;9.410;2023-08-20T08:27:24;99922.25;;;32.25
69186;BMP280;56298;49.246;9.410;2023-08-20T08:29:50;99913.28;;;33.13
69186;BMP280;56298;49.246;9.410;2023-08-20T08:32:16;99912.88;;;33.60
69186;BMP280;56298;49.246;9.410;2023-08-20T08:34:41;99911.13;;;34.20
69186;BMP280;56298;49.246;9.410;2023-08-20T08:37:07;99900.78;;;34.11
69186;BMP280;56298;49.246;9.410;2023-08-20T08:39:33;99904.91;;;34.33
69186;BMP280;56298;49.246;9.410;2023-08-20T08:42:01;99897.78;;;34.85
69186;BMP280;56298;49.246;9.410;2023-08-20T08:44:33;99898.50;;;35.44
69186;BMP280;56298;49.246;9.410;2023-08-20T08:57:19;99896.91;;;35.49
69186;BMP280;56298;49.246;9.410;2023-08-20T08:59:45;99896.09;;;35.54
69186;BMP280;56298;49.246;9.410;2023-08-20T09:02:12;99896.09;;;35.54
69186;BMP280;56298;49.246;9.410;2023-08-20T09:04:43;99904.88;;;35.20
69186;BMP280;56298;49.246;9.410;2023-08-20T09:07:14;99906.72;;;35.11
69186;BMP280;56298;49.246;9.410;2023-08-20T09:09:45;99910.16;;;34.99
69186;BMP280;56298;49.246;9.410;2023-08-20T09:12:18;99910.16;;;34.99
69186;BMP280;56298;49.246;9.410;2023-08-20T09:27:41;99913.19;;;34.42
69186;BMP280;56298;49.246;9.410;2023-08-20T09:56:54;99894.75;;;35.19
69186;BMP280;56298;49.246;9.410;2023-08-20T10:01:57;99896.06;;;35.59
69186;BMP280;56298;49.246;9.410;2023-08-20T10:14:56;99892.25;;;35.51
69186;BMP280;56298;49.246;9.410;2023-08-20T10:17:23;99897.91;;;35.57
69186;BMP280;56298;49.246;9.410;2023-08-20T10:27:36;99904.00;;;35.78
69186;BMP280;56298;49.246;9.410;2023-08-20T10:30:08;99899.25;;;35.50
69186;BMP280;56298;49.246;9.410;2023-08-20T11:01:21;99885.00;;;36.36
69186;BMP280;56298;49.246;9.410;2023-08-20T11:03:50;99879.53;;;36.63
69186;BMP280;56298;49.246;9.410;2023-08-20T11:06:17;99882.47;;;36.51
69186;BMP280;56298;49.246;9.410;2023-08-20T11:08:44;99882.72;;;36.53
69186;BMP280;56298;49.246;9.410;2023-08-20T11:11:10;99882.44;;;36.57
69186;BMP280;56298;49.246;9.410;2023-08-20T11:13:39;99882.44;;;36.57
69186;BMP280;56298;49.246;9.410;2023-08-20T11:16:05;99887.91;;;36.55
69186;BMP280;56298;49.246;9.410;2023-08-20T11:18:34;99882.63;;;36.15
69186;BMP280;56298;49.246;9.410;2023-08-20T11:21:00;99877.44;;;36.38
69186;BMP280;56298;49.246;9.410;2023-08-20T11:23:26;99878.69;;;36.68
69186;BMP280;56298;49.246;9.410;2023-08-20T11:25:51;99868.25;;;37.08
69186;BMP280;56298;49.246;9.410;2023-08-20T11:28:16;99866.41;;;36.92
69186;BMP280;56298;49.246;9.410;2023-08-20T11:30:42;99872.78;;;36.60
69186;BMP280;56298;49.246;9.410;2023-08-20T11:33:08;99872.78;;;36.60
69186;BMP280;56298;49.246;9.410;2023-08-20T11:35:34;99856.91;;;36.59
69186;BMP280;56298;49.246;9.410;2023-08-20T11:38:00;99867.56;;;36.39
69186;BMP280;56298;49.246;9.410;2023-08-20T11:40:26;99869.72;;;36.33
69186;BMP280;56298;49.246;9.410;2023-08-20T11:42:52;99862.69;;;36.09
69186;BMP280;56298;49.246;9.410;2023-08-20T11:45:17;99862.69;;;36.09
69186;BMP280;56298;49.246;9.410;2023-08-20T11:47:42;99865.19;;;36.19
69186;BMP280;56298;49.246;9.410;2023-08-20T11:50:09;99865.19;;;36.19
69186;BMP280;56298;49.246;9.410;2023-08-20T11:52:35;99872.06;;;35.43
69186;BMP280;56298;49.246;9.410;2023-08-20T11:55:01;99872.06;;;35.43
69186;BMP280;56298;49.246;9.410;2023-08-20T11:57:28;99868.75;;;35.70
69186;BMP280;56298;49.246;9.410;2023-08-20T11:59:54;99868.59;;;35.87
69186;BMP280;56298;49.246;9.410;2023-08-20T12:02:26;99863.19;;;36.14
69186;BMP280;56298;49.246;9.410;2023-08-20T12:04:55;99863.19;;;36.14
69186;BMP280;56298;49.246;9.410;2023-08-20T12:07:25;99853.28;;;36.15
69186;BMP280;56298;49.246;9.410;2023-08-20T12:09:51;99853.28;;;36.15
69186;BMP280;56298;49.246;9.410;2023-08-20T12:12:19;99849.53;;;36.25
69186;BMP280;56298;49.246;9.410;2023-08-20T12:14:45;99844.03;;;36.71
69186;BMP280;56298;49.246;9.410;2023-08-20T12:17:12;99844.03;;;36.71
69186;BMP280;56298;49.246;9.410;2023-08-20T12:19:37;99848.13;;;36.57
69186;BMP280;56298;49.246;9.410;2023-08-20T12:22:03;99847.44;;;36.70
69186;BMP280;56298;49.246;9.410;2023-08-20T12:24:29;99845.59;;;36.72
69186;BMP280;56298;49.246;9.410;2023-08-20T12:26:54;99847.31;;;36.81
69186;BMP280;56298;49.246;9.410;2023-08-20T12:29:21;99838.78;;;36.75
69186;BMP280;56298;49.246;9.410;2023-08-20T12:31:46;99829.97;;;36.92
69186;BMP280;56298;49.246;9.410;2023-08-20T12:34:12;99829.97;;;36.92
69186;BMP280;56298;49.246;9.410;2023-08-20T12:36:37;99835.59;;;36.41
69186;BMP280;56298;49.246;9.410;2023-08-20T12:39:04;99835.59;;;36.41
69186;BMP280;56298;49.246;9.410;2023-08-20T12:41:30;99837.53;;;36.52
69186;BMP280;56298;49.246;9.410;2023-08-20T12:43:55;99827.50;;;36.83
69186;BMP280;56298;49.246;9.410;2023-08-20T12:46:21;99832.63;;;36.90
69186;BMP280;56298;49.246;9.410;2023-08-20T12:48:47;99820.44;;;37.22
69186;BMP280;56298;49.246;9.410;2023-08-20T12:51:12;99820.44;;;37.22
69186;BMP280;56298;49.246;9.410;2023-08-20T12:53:40;99821.44;;;37.25
69186;BMP280;56298;49.246;9.410;2023-08-20T12:56:07;99826.19;;;37.36
69186;BMP280;56298;49.246;9.410;2023-08-20T12:58:32;99813.34;;;36.91
69186;BMP280;56298;49.246;9.410;2023-08-20T13:00:57;99816.25;;;37.04
69186;BMP280;56298;49.246;9.410;2023-08-20T13:03:24;99816.25;;;37.04
69186;BMP280;56298;49.246;9.410;2023-08-20T13:05:49;99807.56;;;37.29
69186;BMP280;56298;49.246;9.410;2023-08-20T13:08:15;99807.56;;;37.29
69186;BMP280;56298;49.246;9.410;2023-08-20T13:10:41;99806.66;;;37.53
69186;BMP280;56298;49.246;9.410;2023-08-20T13:13:10;99806.66;;;37.53
69186;BMP280;56298;49.246;9.410;2023-08-20T13:15:36;99802.22;;;37.39
69186;BMP280;56298;49.246;9.410;2023-08-20T13:18:02;99799.00;;;36.97
69186;BMP280;56298;49.246;9.410;2023-08-20T13:20:29;99799.00;;;36.97
69186;BMP280;56298;49.246;9.410;2023-08-20T13:22:54;99812.19;;;36.42
69186;BMP280;56298;49.246;9.410;2023-08-20T13:25:20;99812.19;;;36.42
69186;BMP280;56298;49.246;9.410;2023-08-20T13:27:47;99798.59;;;36.49
69186;BMP280;56298;49.246;9.410;2023-08-20T13:30:12;99800.47;;;36.21
69186;BMP280;56298;49.246;9.410;2023-08-20T13:32:38;99800.91;;;36.06
69186;BMP280;56298;49.246;9.410;2023-08-20T13:35:05;99800.91;;;36.06
69186;BMP280;56298;49.246;9.410;2023-08-20T13:37:31;99790.31;;;36.26
69186;BMP280;56298;49.246;9.410;2023-08-20T13:39:57;99790.31;;;36.26
69186;BMP280;56298;49.246;9.410;2023-08-20T13:42:22;99794.00;;;36.46
69186;BMP280;56298;49.246;9.410;2023-08-20T13:44:48;99794.00;;;36.46
69186;BMP280;56298;49.246;9.410;2023-08-20T13:47:13;99785.53;;;36.34
69186;BMP280;56298;49.246;9.410;2023-08-20T13:49:38;99784.78;;;36.09
69186;BMP280;56298;49.246;9.410;2023-08-20T13:52:04;99784.78;;;36.09
69186;BMP280;56298;49.246;9.410;2023-08-20T13:54:29;99782.47;;;36.07
69186;BMP280;56298;49.246;9.410;2023-08-20T13:56:55;99786.44;;;36.23
69186;BMP280;56298;49.246;9.410;2023-08-20T13:59:21;99787.91;;;35.56
69186;BMP280;56298;49.246;9.410;2023-08-20T14:01:46;99782.03;;;35.48
69186;BMP280;56298;49.246;9.410;2023-08-20T14:04:13;99784.31;;;35.55
69186;BMP280;56298;49.246;9.410;2023-08-20T14:06:38;99784.44;;;35.69
69186;BMP280;56298;49.246;9.410;2023-08-20T14:09:04;99782.25;;;35.81
69186;BMP280;56298;49.246;9.410;2023-08-20T14:11:30;99775.75;;;35.80
69186;BMP280;56298;49.246;9.410;2023-08-20T14:13:55;99780.31;;;35.64
69186;BMP280;56298;49.246;9.410;2023-08-20T14:16:20;99778.53;;;35.61
69186;BMP280;56298;49.246;9.410;2023-08-20T14:18:46;99777.63;;;35.47
69186;BMP280;56298;49.246;9.410;2023-08-20T14:21:11;99782.31;;;35.44
69186;BMP280;56298;49.246;9.410;2023-08-20T14:23:36;99769.38;;;35.68
69186;BMP280;56298;49.246;9.410;2023-08-20T14:26:05;99779.41;;;35.81
69186;BMP280;56298;49.246;9.410;2023-08-20T14:28:30;99775.38;;;35.65
69186;BMP280;56298;49.246;9.410;2023-08-20T14:30:56;99776.28;;;35.78
69186;BMP280;56298;49.246;9.410;2023-08-20T14:33:21;99781.50;;;35.74
69186;BMP280;56298;49.246;9.410;2023-08-20T14:35:47;99778.19;;;35.70
69186;BMP280;56298;49.246;9.410;2023-08-20T14:38:12;99778.19;;;35.70
69186;BMP280;56298;49.246;9.410;2023-08-20T14:40:39;99770.50;;;35.59
69186;BMP280;56298;49.246;9.410;2023-08-20T14:43:06;99770.41;;;35.71
69186;BMP280;56298;49.246;9.410;2023-08-20T14:45:31;99768.81;;;35.45
69186;BMP280;56298;49.246;9.410;2023-08-20T14:47:57;99771.94;;;35.41
69186;BMP280;56298;49.246;9.410;2023-08-20T14:50:22;99768.22;;;35.52
69186;BMP280;56298;49.246;9.410;2023-08-20T14:52:47;99758.56;;;35.61
69186;BMP280;56298;49.246;9.410;2023-08-20T14:55:20;99760.28;;;35.45
69186;BMP280;56298;49.246;9.410;2023-08-20T14:57:45;99756.94;;;35.41
69186;BMP280;56298;49.246;9.410;2023-08-20T15:00:11;99756.94;;;35.41
69186;BMP280;56298;49.246;9.410;2023-08-20T15:02:45;99758.78;;;35.38
69186;BMP280;56298;49.246;9.410;2023-08-20T15:05:10;99756.94;;;35.41
69186;BMP280;56298;49.246;9.410;2023-08-20T15:07:36;99759.81;;;35.35
69186;BMP280;56298;49.246;9.410;2023-08-20T15:10:06;99749.06;;;35.17
69186;BMP280;56298;49.246;9.410;2023-08-20T15:12:36;99748.50;;;35.24
69186;BMP280;56298;49.246;9.410;2023-08-20T15:15:06;99748.50;;;35.24
69186;BMP280;56298;49.246;9.410;2023-08-20T15:17:32;99763.56;;;35.19
69186;BMP280;56298;49.246;9.410;2023-08-20T15:19:58;99763.56;;;35.19
69186;BMP280;56298;49.246;9.410;2023-08-20T15:22:23;99754.56;;;35.09
69186;BMP280;56298;49.246;9.410;2023-08-20T15:24:48;99752.34;;;34.90
69186;BMP280;56298;49.246;9.410;2023-08-20T15:27:16;99748.69;;;34.95
69186;BMP280;56298;49.246;9.410;2023-08-20T15:29:42;99753.31;;;35.04
69186;BMP280;56298;49.246;9.410;2023-08-20T15:32:07;99750.19;;;35.08
69186;BMP280;56298;49.246;9.410;2023-08-20T15:34:33;99752.25;;;35.07
69186;BMP280;56298;49.246;9.410;2023-08-20T15:36:58;99755.81;;;35.13
69186;BMP280;56298;49.246;9.410;2023-08-20T15:39:23;99755.09;;;35.07
69186;BMP280;56298;49.246;9.410;2023-08-20T15:41:49;99749.19;;;35.05
69186;BMP280;56298;49.246;9.410;2023-08-20T15:44:14;99755.53;;;34.87
69186;BMP280;56298;49.246;9.410;2023-08-20T15:46:39;99749.88;;;34.70
69186;BMP280;56298;49.246;9.410;2023-08-20T15:49:05;99751.25;;;34.57